sensor_id;sensor_type;location;lat;lon;timestamp;pressure;altitude;pressure_sealevel;temperature;humidity
13486;BME280;6815;59.336;17.998;2023-04-07T00:00:28;52222.91;;;-145.37;85.52
13486;BME280;6815;59.336;17.998;2023-04-07T00:02:54;52210.91;;;-145.37;85.58
13486;BME280;6815;59.336;17.998;2023-04-07T00:05:20;52204.94;;;-145.37;85.07
13486;BME280;6815;59.336;17.998;2023-04-07T00:07:45;52212.91;;;-145.37;84.98
13486;BME280;6815;59.336;17.998;2023-04-07T00:10:11;52169.00;;;-145.37;85.02
13486;BME280;6815;59.336;17.998;2023-04-07T00:12:36;52230.88;;;-145.37;85.05
13486;BME280;6815;59.336;17.998;2023-04-07T00:15:02;52184.97;;;-145.37;86.05
13486;BME280;6815;59.336;17.998;2023-04-07T00:17:27;52212.91;;;-145.37;86.13
13486;BME280;6815;59.336;17.998;2023-04-07T00:19:53;52228.88;;;-145.37;85.77
13486;BME280;6815;59.336;17.998;2023-04-07T00:22:18;52218.91;;;-145.37;85.55
13486;BME280;6815;59.336;17.998;2023-04-07T00:24:44;52204.94;;;-145.37;85.38
13486;BME280;6815;59.336;17.998;2023-04-07T00:27:10;52167.00;;;-145.37;85.24
13486;BME280;6815;59.336;17.998;2023-04-07T00:29:35;52250.84;;;-145.37;85.16
13486;BME280;6815;59.336;17.998;2023-04-07T00:32:01;52204.94;;;-145.37;85.87
13486;BME280;6815;59.336;17.998;2023-04-07T00:34:27;52216.91;;;-145.37;85.27
13486;BME280;6815;59.336;17.998;2023-04-07T00:36:52;52224.91;;;-145.37;85.41
13486;BME280;6815;59.336;17.998;2023-04-07T00:39:18;52234.88;;;-145.37;85.41
13486;BME280;6815;59.336;17.998;2023-04-07T00:41:44;52214.91;;;-145.37;85.58
13486;BME280;6815;59.336;17.998;2023-04-07T00:44:10;52200.94;;;-145.37;85.74
13486;BME280;6815;59.336;17.998;2023-04-07T00:46:36;52175.00;;;-145.37;85.41
13486;BME280;6815;59.336;17.998;2023-04-07T00:49:02;52200.94;;;-145.37;85.44
13486;BME280;6815;59.336;17.998;2023-04-07T00:51:27;52220.91;;;-145.37;85.74
13486;BME280;6815;59.336;17.998;2023-04-07T00:53:54;52177.00;;;-145.37;86.25
13486;BME280;6815;59.336;17.998;2023-04-07T00:56:19;52206.94;;;-145.37;86.06
13486;BME280;6815;59.336;17.998;2023-04-07T00:58:45;52214.91;;;-145.37;85.89
13486;BME280;6815;59.336;17.998;2023-04-07T01:01:31;52194.94;;;-145.37;85.69
13486;BME280;6815;59.336;17.998;2023-04-07T01:04:08;52210.91;;;-145.37;85.38
13486;BME280;6815;59.336;17.998;2023-04-07T01:06:36;52214.91;;;-145.37;86.17
13486;BME280;6815;59.336;17.998;2023-04-07T01:09:06;52165.00;;;-145.37;86.42
13486;BME280;6815;59.336;17.998;2023-04-07T01:12:41;52216.91;;;-145.37;85.96
13486;BME280;6815;59.336;17.998;2023-04-07T01:14:46;52216.91;;;-145.37;86.31
13486;BME280;6815;59.336;17.998;2023-04-07T01:17:14;52159.03;;;-145.37;86.24
13486;BME280;6815;59.336;17.998;2023-04-07T01:19:48;52206.94;;;-145.37;86.78
13486;BME280;6815;59.336;17.998;2023-04-07T01:22:22;52200.94;;;-145.37;86.43
13486;BME280;6815;59.336;17.998;2023-04-07T01:30:39;52206.94;;;-145.37;86.16
13486;BME280;6815;59.336;17.998;2023-04-07T01:33:07;52238.88;;;-145.37;86.12
13486;BME280;6815;59.336;17.998;2023-04-07T01:35:34;52226.91;;;-145.37;86.12
13486;BME280;6815;59.336;17.998;2023-04-07T01:38:02;52218.91;;;-145.37;86.54
13486;BME280;6815;59.336;17.998;2023-04-07T01:40:29;52196.94;;;-145.37;87.03
13486;BME280;6815;59.336;17.998;2023-04-07T01:42:57;52165.00;;;-145.37;86.81
13486;BME280;6815;59.336;17.998;2023-04-07T01:45:25;52182.97;;;-145.37;86.32
13486;BME280;6815;59.336;17.998;2023-04-07T01:47:51;52196.94;;;-145.37;86.93
13486;BME280;6815;59.336;17.998;2023-04-07T01:50:18;52184.97;;;-145.37;86.97
13486;BME280;6815;59.336;17.998;2023-04-07T01:52:46;52202.94;;;-145.37;86.69
13486;BME280;6815;59.336;17.998;2023-04-07T01:55:13;52190.97;;;-145.37;86.94
13486;BME280;6815;59.336;17.998;2023-04-07T01:57:38;52224.91;;;-145.37;87.17
13486;BME280;6815;59.336;17.998;2023-04-07T02:00:05;52192.97;;;-145.37;87.02
13486;BME280;6815;59.336;17.998;2023-04-07T02:02:32;52220.91;;;-145.37;87.32
13486;BME280;6815;59.336;17.998;2023-04-07T02:05:04;52218.91;;;-145.37;87.37
13486;BME280;6815;59.336;17.998;2023-04-07T02:09:59;52226.91;;;-145.37;87.47
13486;BME280;6815;59.336;17.998;2023-04-07T02:12:28;52230.88;;;-145.37;87.30
13486;BME280;6815;59.336;17.998;2023-04-07T02:14:56;52198.94;;;-145.37;87.37
13486;BME280;6815;59.336;17.998;2023-04-07T02:17:23;52218.91;;;-145.37;88.01
13486;BME280;6815;59.336;17.998;2023-04-07T02:19:50;52175.00;;;-145.37;88.03
13486;BME280;6815;59.336;17.998;2023-04-07T02:22:17;52190.97;;;-145.37;87.52
13486;BME280;6815;59.336;17.998;2023-04-07T02:24:43;52230.88;;;-145.37;87.87
13486;BME280;6815;59.336;17.998;2023-04-07T02:27:08;52194.94;;;-145.37;87.58
13486;BME280;6815;59.336;17.998;2023-04-07T02:29:34;52194.94;;;-145.37;87.88
13486;BME280;6815;59.336;17.998;2023-04-07T02:31:59;52224.91;;;-145.37;87.74
13486;BME280;6815;59.336;17.998;2023-04-07T02:34:25;52200.94;;;-145.37;87.88
13486;BME280;6815;59.336;17.998;2023-04-07T02:36:50;52184.97;;;-145.37;87.73
13486;BME280;6815;59.336;17.998;2023-04-07T02:39:16;52230.88;;;-145.37;88.16
13486;BME280;6815;59.336;17.998;2023-04-07T02:41:41;52204.94;;;-145.37;87.78
13486;BME280;6815;59.336;17.998;2023-04-07T02:44:07;52188.97;;;-145.37;87.64
13486;BME280;6815;59.336;17.998;2023-04-07T02:46:32;52196.94;;;-145.37;87.54
13486;BME280;6815;59.336;17.998;2023-04-07T02:48:58;52188.97;;;-145.37;88.20
13486;BME280;6815;59.336;17.998;2023-04-07T02:51:23;52180.97;;;-145.37;88.70
13486;BME280;6815;59.336;17.998;2023-04-07T02:53:49;52167.00;;;-145.37;89.20
13486;BME280;6815;59.336;17.998;2023-04-07T02:56:15;52204.94;;;-145.37;88.71
13486;BME280;6815;59.336;17.998;2023-04-07T02:58:41;52204.94;;;-145.37;88.65
13486;BME280;6815;59.336;17.998;2023-04-07T03:01:06;52230.88;;;-145.37;89.30
13486;BME280;6815;59.336;17.998;2023-04-07T03:03:31;52190.97;;;-145.37;88.65
13486;BME280;6815;59.336;17.998;2023-04-07T03:05:57;52208.94;;;-145.37;89.91
13486;BME280;6815;59.336;17.998;2023-04-07T03:08:22;52238.88;;;-145.37;89.56
13486;BME280;6815;59.336;17.998;2023-04-07T03:10:48;52220.91;;;-145.37;89.45
13486;BME280;6815;59.336;17.998;2023-04-07T03:13:13;52198.94;;;-145.37;89.62
13486;BME280;6815;59.336;17.998;2023-04-07T03:15:41;52200.94;;;-145.37;89.25
13486;BME280;6815;59.336;17.998;2023-04-07T03:18:07;52180.97;;;-145.37;89.11
13486;BME280;6815;59.336;17.998;2023-04-07T03:20:33;52210.91;;;-145.37;88.78
13486;BME280;6815;59.336;17.998;2023-04-07T03:22:58;52222.91;;;-145.37;89.14
13486;BME280;6815;59.336;17.998;2023-04-07T03:25:24;52194.94;;;-145.37;89.26
13486;BME280;6815;59.336;17.998;2023-04-07T03:27:51;52182.97;;;-145.37;89.07
13486;BME280;6815;59.336;17.998;2023-04-07T03:30:17;52177.00;;;-145.37;89.34
13486;BME280;6815;59.336;17.998;2023-04-07T03:32:42;52163.00;;;-145.37;90.19
13486;BME280;6815;59.336;17.998;2023-04-07T03:35:08;52196.94;;;-145.37;89.87
13486;BME280;6815;59.336;17.998;2023-04-07T03:37:33;52188.97;;;-145.37;89.35
13486;BME280;6815;59.336;17.998;2023-04-07T03:39:59;52234.88;;;-145.37;89.20
13486;BME280;6815;59.336;17.998;2023-04-07T03:42:24;52208.94;;;-145.37;89.18
13486;BME280;6815;59.336;17.998;2023-04-07T03:44:50;52167.00;;;-145.37;89.31
13486;BME280;6815;59.336;17.998;2023-04-07T03:47:16;52188.97;;;-145.37;89.45
13486;BME280;6815;59.336;17.998;2023-04-07T03:49:42;52159.03;;;-145.37;89.65
13486;BME280;6815;59.336;17.998;2023-04-07T03:52:07;52200.94;;;-145.37;90.01
13486;BME280;6815;59.336;17.998;2023-04-07T03:54:33;52212.91;;;-145.37;89.72
13486;BME280;6815;59.336;17.998;2023-04-07T03:56:59;52210.91;;;-145.37;89.39
13486;BME280;6815;59.336;17.998;2023-04-07T03:59:26;52178.97;;;-145.37;90.15
13486;BME280;6815;59.336;17.998;2023-04-07T04:01:52;52256.84;;;-145.37;89.75
13486;BME280;6815;59.336;17.998;2023-04-07T04:04:17;52186.97;;;-145.37;90.26
13486;BME280;6815;59.336;17.998;2023-04-07T04:06:43;52190.97;;;-145.37;90.07
13486;BME280;6815;59.336;17.998;2023-04-07T04:09:08;52196.94;;;-145.37;90.79
13486;BME280;6815;59.336;17.998;2023-04-07T04:11:34;52204.94;;;-145.37;90.96
13486;BME280;6815;59.336;17.998;2023-04-07T04:14:00;52216.91;;;-145.37;90.45
13486;BME280;6815;59.336;17.998;2023-04-07T04:16:26;52240.88;;;-145.37;90.61
13486;BME280;6815;59.336;17.998;2023-04-07T04:18:51;52218.91;;;-145.37;90.22
13486;BME280;6815;59.336;17.998;2023-04-07T04:21:17;52194.94;;;-145.37;90.48
13486;BME280;6815;59.336;17.998;2023-04-07T04:23:42;52198.94;;;-145.37;91.21
13486;BME280;6815;59.336;17.998;2023-04-07T04:26:08;52184.97;;;-145.37;91.03
13486;BME280;6815;59.336;17.998;2023-04-07T04:28:33;52208.94;;;-145.37;91.00
13486;BME280;6815;59.336;17.998;2023-04-07T04:30:59;52224.91;;;-145.37;90.83
13486;BME280;6815;59.336;17.998;2023-04-07T04:33:24;52236.88;;;-145.37;91.22
13486;BME280;6815;59.336;17.998;2023-04-07T04:35:50;52208.94;;;-145.37;91.24
13486;BME280;6815;59.336;17.998;2023-04-07T04:38:15;52218.91;;;-145.37;90.81
13486;BME280;6815;59.336;17.998;2023-04-07T04:40:41;52159.03;;;-145.37;90.47
13486;BME280;6815;59.336;17.998;2023-04-07T04:43:06;52216.91;;;-145.37;90.61
13486;BME280;6815;59.336;17.998;2023-04-07T04:45:35;52216.91;;;-145.37;90.85
13486;BME280;6815;59.336;17.998;2023-04-07T04:48:00;52200.94;;;-145.37;90.77
13486;BME280;6815;59.336;17.998;2023-04-07T04:50:26;52196.94;;;-145.37;90.75
13486;BME280;6815;59.336;17.998;2023-04-07T04:52:51;52206.94;;;-145.37;91.06
13486;BME280;6815;59.336;17.998;2023-04-07T04:55:17;52186.97;;;-145.37;91.68
13486;BME280;6815;59.336;17.998;2023-04-07T04:57:42;52184.97;;;-145.37;92.53
13486;BME280;6815;59.336;17.998;2023-04-07T05:00:08;52248.84;;;-145.37;91.57
13486;BME280;6815;59.336;17.998;2023-04-07T05:02:35;52224.91;;;-145.37;91.27
13486;BME280;6815;59.336;17.998;2023-04-07T05:05:01;52220.91;;;-145.37;91.08
13486;BME280;6815;59.336;17.998;2023-04-07T05:07:26;52210.91;;;-145.37;91.41
13486;BME280;6815;59.336;17.998;2023-04-07T05:09:52;52208.94;;;-145.37;91.64
13486;BME280;6815;59.336;17.998;2023-04-07T05:12:17;52184.97;;;-145.37;92.06
13486;BME280;6815;59.336;17.998;2023-04-07T05:14:43;52173.00;;;-145.37;91.43
13486;BME280;6815;59.336;17.998;2023-04-07T05:17:08;52177.00;;;-145.37;91.95
13486;BME280;6815;59.336;17.998;2023-04-07T05:19:34;52182.97;;;-145.37;91.89
13486;BME280;6815;59.336;17.998;2023-04-07T05:21:59;52204.94;;;-145.37;91.65
13486;BME280;6815;59.336;17.998;2023-04-07T05:24:27;52182.97;;;-145.37;91.66
13486;BME280;6815;59.336;17.998;2023-04-07T05:26:52;52214.91;;;-145.37;91.52
13486;BME280;6815;59.336;17.998;2023-04-07T05:29:18;52200.94;;;-145.37;91.64
13486;BME280;6815;59.336;17.998;2023-04-07T05:31:43;52222.91;;;-145.37;91.52
13486;BME280;6815;59.336;17.998;2023-04-07T05:34:09;52222.91;;;-145.37;91.21
13486;BME280;6815;59.336;17.998;2023-04-07T05:36:35;52212.91;;;-145.37;91.12
13486;BME280;6815;59.336;17.998;2023-04-07T05:39:00;52208.94;;;-145.37;91.53
13486;BME280;6815;59.336;17.998;2023-04-07T05:41:25;52234.88;;;-145.37;91.41
13486;BME280;6815;59.336;17.998;2023-04-07T05:43:51;52218.91;;;-145.37;91.35
13486;BME280;6815;59.336;17.998;2023-04-07T05:46:16;52175.00;;;-145.37;91.24
13486;BME280;6815;59.336;17.998;2023-04-07T05:48:42;52204.94;;;-145.37;91.45
13486;BME280;6815;59.336;17.998;2023-04-07T05:51:07;52220.91;;;-145.37;91.47
13486;BME280;6815;59.336;17.998;2023-04-07T05:53:33;52208.94;;;-145.37;90.99
13486;BME280;6815;59.336;17.998;2023-04-07T05:55:58;52206.94;;;-145.37;91.92
13486;BME280;6815;59.336;17.998;2023-04-07T05:58:24;52202.94;;;-145.37;91.67
13486;BME280;6815;59.336;17.998;2023-04-07T06:00:49;52208.94;;;-145.37;91.61
13486;BME280;6815;59.336;17.998;2023-04-07T06:03:15;52184.97;;;-145.37;91.89
13486;BME280;6815;59.336;17.998;2023-04-07T06:05:41;52180.97;;;-145.37;91.90
13486;BME280;6815;59.336;17.998;2023-04-07T06:08:08;52210.91;;;-145.37;91.29
13486;BME280;6815;59.336;17.998;2023-04-07T06:10:35;52248.84;;;-145.37;90.76
13486;BME280;6815;59.336;17.998;2023-04-07T06:13:00;52246.84;;;-145.37;91.21
13486;BME280;6815;59.336;17.998;2023-04-07T06:15:26;52180.97;;;-145.37;91.11
13486;BME280;6815;59.336;17.998;2023-04-07T06:17:51;52204.94;;;-145.37;91.19
13486;BME280;6815;59.336;17.998;2023-04-07T06:20:17;52180.97;;;-145.37;91.34
13486;BME280;6815;59.336;17.998;2023-04-07T06:22:44;52226.91;;;-145.37;91.48
13486;BME280;6815;59.336;17.998;2023-04-07T06:25:09;52222.91;;;-145.37;91.41
13486;BME280;6815;59.336;17.998;2023-04-07T06:27:35;52169.00;;;-145.37;91.44
13486;BME280;6815;59.336;17.998;2023-04-07T06:30:00;52175.00;;;-145.37;91.32
13486;BME280;6815;59.336;17.998;2023-04-07T06:32:26;52212.91;;;-145.37;91.44
13486;BME280;6815;59.336;17.998;2023-04-07T06:34:52;52214.91;;;-145.37;91.47
13486;BME280;6815;59.336;17.998;2023-04-07T06:37:17;52190.97;;;-145.37;90.58
13486;BME280;6815;59.336;17.998;2023-04-07T06:39:43;52212.91;;;-145.37;90.31
13486;BME280;6815;59.336;17.998;2023-04-07T06:42:09;52230.88;;;-145.37;90.86
13486;BME280;6815;59.336;17.998;2023-04-07T06:44:35;52200.94;;;-145.37;90.79
13486;BME280;6815;59.336;17.998;2023-04-07T06:47:00;52216.91;;;-145.37;90.33
13486;BME280;6815;59.336;17.998;2023-04-07T06:49:26;52204.94;;;-145.37;90.41
13486;BME280;6815;59.336;17.998;2023-04-07T06:51:51;52224.91;;;-145.37;90.29
13486;BME280;6815;59.336;17.998;2023-04-07T06:54:17;52232.88;;;-145.37;90.61
13486;BME280;6815;59.336;17.998;2023-04-07T06:56:42;52244.84;;;-145.37;90.67
13486;BME280;6815;59.336;17.998;2023-04-07T06:59:08;52226.91;;;-145.37;90.43
13486;BME280;6815;59.336;17.998;2023-04-07T07:01:35;52218.91;;;-145.37;90.25
13486;BME280;6815;59.336;17.998;2023-04-07T07:04:02;52169.00;;;-145.37;90.25
13486;BME280;6815;59.336;17.998;2023-04-07T07:06:27;52186.97;;;-145.37;89.86
13486;BME280;6815;59.336;17.998;2023-04-07T07:08:53;52214.91;;;-145.37;89.96
13486;BME280;6815;59.336;17.998;2023-04-07T07:11:19;52242.88;;;-145.37;89.40
13486;BME280;6815;59.336;17.998;2023-04-07T07:13:45;52198.94;;;-145.37;89.38
13486;BME280;6815;59.336;17.998;2023-04-07T07:16:10;52214.91;;;-145.37;89.60
13486;BME280;6815;59.336;17.998;2023-04-07T07:18:39;52196.94;;;-145.37;89.13
13486;BME280;6815;59.336;17.998;2023-04-07T07:21:05;52202.94;;;-145.37;89.36
13486;BME280;6815;59.336;17.998;2023-04-07T07:23:30;52198.94;;;-145.37;89.17
13486;BME280;6815;59.336;17.998;2023-04-07T07:25:56;52232.88;;;-145.37;88.84
13486;BME280;6815;59.336;17.998;2023-04-07T07:28:21;52224.91;;;-145.37;88.78
13486;BME280;6815;59.336;17.998;2023-04-07T07:30:47;52246.84;;;-145.37;88.80
13486;BME280;6815;59.336;17.998;2023-04-07T07:33:13;52236.88;;;-145.37;88.62
13486;BME280;6815;59.336;17.998;2023-04-07T07:35:39;52220.91;;;-145.37;88.67
13486;BME280;6815;59.336;17.998;2023-04-07T07:38:04;52208.94;;;-145.37;88.66
13486;BME280;6815;59.336;17.998;2023-04-07T07:40:30;52220.91;;;-145.37;88.55
13486;BME280;6815;59.336;17.998;2023-04-07T07:42:56;52178.97;;;-145.37;88.55
13486;BME280;6815;59.336;17.998;2023-04-07T07:45:21;52218.91;;;-145.37;88.61
13486;BME280;6815;59.336;17.998;2023-04-07T07:47:47;52272.81;;;-145.37;89.02
13486;BME280;6815;59.336;17.998;2023-04-07T07:50:12;52198.94;;;-145.37;88.92
13486;BME280;6815;59.336;17.998;2023-04-07T07:52:38;52238.88;;;-145.37;88.81
13486;BME280;6815;59.336;17.998;2023-04-07T07:55:04;52196.94;;;-145.37;88.46
13486;BME280;6815;59.336;17.998;2023-04-07T07:57:29;52204.94;;;-145.37;88.41
13486;BME280;6815;59.336;17.998;2023-04-07T07:59:56;52220.91;;;-145.37;88.67
13486;BME280;6815;59.336;17.998;2023-04-07T08:02:21;52262.81;;;-145.37;89.04
13486;BME280;6815;59.336;17.998;2023-04-07T08:04:47;52192.97;;;-145.37;88.75
13486;BME280;6815;59.336;17.998;2023-04-07T08:07:12;52220.91;;;-145.37;88.25
13486;BME280;6815;59.336;17.998;2023-04-07T08:09:37;52216.91;;;-145.37;88.49
13486;BME280;6815;59.336;17.998;2023-04-07T08:12:03;52202.94;;;-145.37;87.84
13486;BME280;6815;59.336;17.998;2023-04-07T08:14:29;52216.91;;;-145.37;88.11
13486;BME280;6815;59.336;17.998;2023-04-07T08:16:54;52194.94;;;-145.37;88.25
13486;BME280;6815;59.336;17.998;2023-04-07T08:19:20;52224.91;;;-145.37;88.08
13486;BME280;6815;59.336;17.998;2023-04-07T08:21:45;52204.94;;;-145.37;88.41
13486;BME280;6815;59.336;17.998;2023-04-07T08:24:11;52212.91;;;-145.37;88.17
13486;BME280;6815;59.336;17.998;2023-04-07T08:26:37;52208.94;;;-145.37;88.02
13486;BME280;6815;59.336;17.998;2023-04-07T08:29:02;52220.91;;;-145.37;87.77
13486;BME280;6815;59.336;17.998;2023-04-07T08:31:28;52204.94;;;-145.37;88.12
13486;BME280;6815;59.336;17.998;2023-04-07T08:33:53;52196.94;;;-145.37;88.57
13486;BME280;6815;59.336;17.998;2023-04-07T08:36:23;52230.88;;;-145.37;87.85
13486;BME280;6815;59.336;17.998;2023-04-07T08:38:48;52248.84;;;-145.37;87.51
13486;BME280;6815;59.336;17.998;2023-04-07T08:41:19;52220.91;;;-145.37;87.52
13486;BME280;6815;59.336;17.998;2023-04-07T08:43:47;52236.88;;;-145.37;87.45
13486;BME280;6815;59.336;17.998;2023-04-07T08:46:14;52242.88;;;-145.37;87.06
13486;BME280;6815;59.336;17.998;2023-04-07T08:48:43;52230.88;;;-145.37;87.82
13486;BME280;6815;59.336;17.998;2023-04-07T08:51:09;52194.94;;;-145.37;87.74
13486;BME280;6815;59.336;17.998;2023-04-07T08:53:48;52214.91;;;-145.37;88.04
13486;BME280;6815;59.336;17.998;2023-04-07T08:56:16;52240.88;;;-145.37;88.40
13486;BME280;6815;59.336;17.998;2023-04-07T08:58:42;52218.91;;;-145.37;88.11
13486;BME280;6815;59.336;17.998;2023-04-07T09:01:09;52208.94;;;-145.37;87.87
13486;BME280;6815;59.336;17.998;2023-04-07T09:03:35;52208.94;;;-145.37;87.75
13486;BME280;6815;59.336;17.998;2023-04-07T09:06:01;52180.97;;;-145.37;87.54
13486;BME280;6815;59.336;17.998;2023-04-07T09:08:27;52200.94;;;-145.37;87.42
13486;BME280;6815;59.336;17.998;2023-04-07T09:10:55;52234.88;;;-145.37;87.21
13486;BME280;6815;59.336;17.998;2023-04-07T09:13:21;52228.88;;;-145.37;87.28
13486;BME280;6815;59.336;17.998;2023-04-07T09:15:48;52234.88;;;-145.37;87.21
13486;BME280;6815;59.336;17.998;2023-04-07T09:18:13;52238.88;;;-145.37;87.35
13486;BME280;6815;59.336;17.998;2023-04-07T09:23:31;52220.91;;;-145.37;87.88
13486;BME280;6815;59.336;17.998;2023-04-07T09:25:57;52226.91;;;-145.37;87.15
13486;BME280;6815;59.336;17.998;2023-04-07T09:28:42;52194.94;;;-145.37;87.69
13486;BME280;6815;59.336;17.998;2023-04-07T09:31:09;52208.94;;;-145.37;87.17
13486;BME280;6815;59.336;17.998;2023-04-07T09:33:34;52216.91;;;-145.37;87.18
13486;BME280;6815;59.336;17.998;2023-04-07T09:36:04;52224.91;;;-145.37;87.23
13486;BME280;6815;59.336;17.998;2023-04-07T09:38:37;52204.94;;;-145.37;87.28
13486;BME280;6815;59.336;17.998;2023-04-07T09:43:35;52198.94;;;-145.37;87.25
13486;BME280;6815;59.336;17.998;2023-04-07T09:48:35;52244.84;;;-145.37;86.76
13486;BME280;6815;59.336;17.998;2023-04-07T09:51:05;52246.84;;;-145.37;87.20
13486;BME280;6815;59.336;17.998;2023-04-07T09:53:48;52208.94;;;-145.37;87.00
13486;BME280;6815;59.336;17.998;2023-04-07T09:56:18;52218.91;;;-145.37;87.45
13486;BME280;6815;59.336;17.998;2023-04-07T09:58:47;52212.91;;;-145.37;86.91
13486;BME280;6815;59.336;17.998;2023-04-07T10:01:15;52182.97;;;-145.37;86.59
13486;BME280;6815;59.336;17.998;2023-04-07T10:03:42;52190.97;;;-145.37;86.95
13486;BME280;6815;59.336;17.998;2023-04-07T10:06:08;52210.91;;;-145.37;87.17
13486;BME280;6815;59.336;17.998;2023-04-07T10:08:35;52236.88;;;-145.37;86.96
13486;BME280;6815;59.336;17.998;2023-04-07T10:11:02;52163.00;;;-145.37;86.78
13486;BME280;6815;59.336;17.998;2023-04-07T10:13:33;52214.91;;;-145.37;86.47
13486;BME280;6815;59.336;17.998;2023-04-07T10:16:02;52208.94;;;-145.37;86.68
13486;BME280;6815;59.336;17.998;2023-04-07T10:18:29;52226.91;;;-145.37;86.24
13486;BME280;6815;59.336;17.998;2023-04-07T10:21:03;52184.97;;;-145.37;86.30
13486;BME280;6815;59.336;17.998;2023-04-07T10:23:59;52208.94;;;-145.37;86.30
13486;BME280;6815;59.336;17.998;2023-04-07T10:26:31;52228.88;;;-145.37;86.51
13486;BME280;6815;59.336;17.998;2023-04-07T10:29:03;52218.91;;;-145.37;86.55
13486;BME280;6815;59.336;17.998;2023-04-07T10:31:30;52230.88;;;-145.37;86.28
13486;BME280;6815;59.336;17.998;2023-04-07T10:33:56;52216.91;;;-145.37;86.02
13486;BME280;6815;59.336;17.998;2023-04-07T10:36:22;52240.88;;;-145.37;85.89
13486;BME280;6815;59.336;17.998;2023-04-07T10:41:35;52192.97;;;-145.37;85.92
13486;BME280;6815;59.336;17.998;2023-04-07T10:44:02;52226.91;;;-145.37;86.19
13486;BME280;6815;59.336;17.998;2023-04-07T10:49:16;52216.91;;;-145.37;86.10
13486;BME280;6815;59.336;17.998;2023-04-07T10:51:42;52246.84;;;-145.37;85.69
13486;BME280;6815;59.336;17.998;2023-04-07T10:54:22;52220.91;;;-145.37;85.66
13486;BME280;6815;59.336;17.998;2023-04-07T10:59:28;52232.88;;;-145.37;85.54
13486;BME280;6815;59.336;17.998;2023-04-07T11:04:43;52196.94;;;-145.37;85.34
13486;BME280;6815;59.336;17.998;2023-04-07T11:07:10;52216.91;;;-145.37;85.40
13486;BME280;6815;59.336;17.998;2023-04-07T11:09:36;52214.91;;;-145.37;85.44
13486;BME280;6815;59.336;17.998;2023-04-07T11:12:01;52246.84;;;-145.37;85.26
13486;BME280;6815;59.336;17.998;2023-04-07T11:14:28;52224.91;;;-145.37;85.26
13486;BME280;6815;59.336;17.998;2023-04-07T11:16:54;52210.91;;;-145.37;85.39
13486;BME280;6815;59.336;17.998;2023-04-07T11:19:20;52248.84;;;-145.37;85.26
13486;BME280;6815;59.336;17.998;2023-04-07T11:21:46;52224.91;;;-145.37;84.79
13486;BME280;6815;59.336;17.998;2023-04-07T11:24:50;52220.91;;;-145.37;84.79
13486;BME280;6815;59.336;17.998;2023-04-07T11:27:16;52226.91;;;-145.37;85.35
13486;BME280;6815;59.336;17.998;2023-04-07T11:29:41;52222.91;;;-145.37;85.20
13486;BME280;6815;59.336;17.998;2023-04-07T11:32:08;52196.94;;;-145.37;84.72
13486;BME280;6815;59.336;17.998;2023-04-07T11:34:35;52238.88;;;-145.37;84.85
13486;BME280;6815;59.336;17.998;2023-04-07T11:37:22;52220.91;;;-145.37;84.46
13486;BME280;6815;59.336;17.998;2023-04-07T11:39:54;52204.94;;;-145.37;84.41
13486;BME280;6815;59.336;17.998;2023-04-07T11:42:39;52196.94;;;-145.37;84.50
13486;BME280;6815;59.336;17.998;2023-04-07T11:45:14;52204.94;;;-145.37;85.16
13486;BME280;6815;59.336;17.998;2023-04-07T11:47:40;52218.91;;;-145.37;84.77
13486;BME280;6815;59.336;17.998;2023-04-07T11:50:07;52194.94;;;-145.37;84.39
13486;BME280;6815;59.336;17.998;2023-04-07T11:52:46;52220.91;;;-145.37;84.57
13486;BME280;6815;59.336;17.998;2023-04-07T11:55:19;52220.91;;;-145.37;84.25
13486;BME280;6815;59.336;17.998;2023-04-07T11:57:46;52234.88;;;-145.37;84.22
13486;BME280;6815;59.336;17.998;2023-04-07T12:00:12;52190.97;;;-145.37;83.73
13486;BME280;6815;59.336;17.998;2023-04-07T12:02:38;52198.94;;;-145.37;83.69
13486;BME280;6815;59.336;17.998;2023-04-07T12:05:04;52242.88;;;-145.37;83.89
13486;BME280;6815;59.336;17.998;2023-04-07T12:07:30;52212.91;;;-145.37;83.58
13486;BME280;6815;59.336;17.998;2023-04-07T12:09:56;52196.94;;;-145.37;83.75
13486;BME280;6815;59.336;17.998;2023-04-07T12:12:26;52212.91;;;-145.37;83.79
13486;BME280;6815;59.336;17.998;2023-04-07T12:14:52;52204.94;;;-145.37;83.78
13486;BME280;6815;59.336;17.998;2023-04-07T12:17:22;52234.88;;;-145.37;83.97
13486;BME280;6815;59.336;17.998;2023-04-07T12:19:48;52198.94;;;-145.37;83.72
13486;BME280;6815;59.336;17.998;2023-04-07T12:22:13;52228.88;;;-145.37;83.77
13486;BME280;6815;59.336;17.998;2023-04-07T12:24:39;52210.91;;;-145.37;84.13
13486;BME280;6815;59.336;17.998;2023-04-07T12:27:04;52216.91;;;-145.37;83.66
13486;BME280;6815;59.336;17.998;2023-04-07T12:29:30;52212.91;;;-145.37;83.51
13486;BME280;6815;59.336;17.998;2023-04-07T12:31:55;52208.94;;;-145.37;83.25
13486;BME280;6815;59.336;17.998;2023-04-07T12:34:21;52252.84;;;-145.37;83.49
13486;BME280;6815;59.336;17.998;2023-04-07T12:36:48;52184.97;;;-145.37;83.30
13486;BME280;6815;59.336;17.998;2023-04-07T12:39:14;52230.88;;;-145.37;83.22
13486;BME280;6815;59.336;17.998;2023-04-07T12:41:40;52220.91;;;-145.37;83.41
13486;BME280;6815;59.336;17.998;2023-04-07T12:44:06;52224.91;;;-145.37;82.90
13486;BME280;6815;59.336;17.998;2023-04-07T12:46:32;52169.00;;;-145.37;82.77
13486;BME280;6815;59.336;17.998;2023-04-07T12:48:58;52214.91;;;-145.37;82.80
13486;BME280;6815;59.336;17.998;2023-04-07T12:51:24;52232.88;;;-145.37;82.92
13486;BME280;6815;59.336;17.998;2023-04-07T12:53:50;52192.97;;;-145.37;82.60
13486;BME280;6815;59.336;17.998;2023-04-07T12:56:15;52250.84;;;-145.37;82.17
13486;BME280;6815;59.336;17.998;2023-04-07T12:58:41;52206.94;;;-145.37;82.25
13486;BME280;6815;59.336;17.998;2023-04-07T13:01:07;52234.88;;;-145.37;82.14
13486;BME280;6815;59.336;17.998;2023-04-07T13:03:33;52238.88;;;-145.37;82.21
13486;BME280;6815;59.336;17.998;2023-04-07T13:05:59;52254.84;;;-145.37;82.55